sensor_id;sensor_type;location;lat;lon;timestamp;P1;durP1;ratioP1;P2;durP2;ratioP2
21901;SDS011;11115;46.038;14.612;2024-03-06T00:01:19;18.87;;;7.27;;
21901;SDS011;11115;46.038;14.612;2024-03-06T00:03:54;14.57;;;8.00;;
21901;SDS011;11115;46.038;14.612;2024-03-06T00:06:28;20.63;;;8.80;;
21901;SDS011;11115;46.038;14.612;2024-03-06T00:09:01;14.70;;;8.17;;
21901;SDS011;11115;46.038;14.612;2024-03-06T00:11:35;13.70;;;8.70;;
21901;SDS011;11115;46.038;14.612;2024-03-06T00:14:06;10.88;;;8.02;;
21901;SDS011;11115;46.038;14.612;2024-03-06T00:16:39;28.07;;;16.23;;
21901;SDS011;11115;46.038;14.612;2024-03-06T00:19:19;42.63;;;24.07;;
21901;SDS011;11115;46.038;14.612;2024-03-06T00:21:51;48.63;;;24.73;;
21901;SDS011;11115;46.038;14.612;2024-03-06T00:24:33;33.67;;;18.87;;
21901;SDS011;11115;46.038;14.612;2024-03-06T00:27:07;39.53;;;22.73;;
21901;SDS011;11115;46.038;14.612;2024-03-06T00:29:44;17.53;;;12.07;;
21901;SDS011;11115;46.038;14.612;2024-03-06T00:32:17;22.40;;;13.37;;
21901;SDS011;11115;46.038;14.612;2024-03-06T00:35:08;20.77;;;11.83;;
21901;SDS011;11115;46.038;14.612;2024-03-06T00:37:37;14.83;;;8.63;;
21901;SDS011;11115;46.038;14.612;2024-03-06T00:40:11;26.60;;;11.23;;
21901;SDS011;11115;46.038;14.612;2024-03-06T00:42:45;22.47;;;11.07;;
21901;SDS011;11115;46.038;14.612;2024-03-06T00:45:21;20.80;;;11.03;;
21901;SDS011;11115;46.038;14.612;2024-03-06T00:47:53;19.40;;;7.37;;
21901;SDS011;11115;46.038;14.612;2024-03-06T00:50:28;16.23;;;7.87;;
21901;SDS011;11115;46.038;14.612;2024-03-06T00:53:04;12.67;;;7.93;;
21901;SDS011;11115;46.038;14.612;2024-03-06T00:55:36;11.32;;;8.85;;
21901;SDS011;11115;46.038;14.612;2024-03-06T00:58:08;15.57;;;8.10;;
21901;SDS011;11115;46.038;14.612;2024-03-06T01:00:51;10.30;;;8.83;;
21901;SDS011;11115;46.038;14.612;2024-03-06T01:03:25;11.97;;;7.90;;
21901;SDS011;11115;46.038;14.612;2024-03-06T01:06:03;13.97;;;8.70;;
21901;SDS011;11115;46.038;14.612;2024-03-06T01:08:44;17.90;;;8.87;;
21901;SDS011;11115;46.038;14.612;2024-03-06T01:11:17;13.03;;;7.80;;
21901;SDS011;11115;46.038;14.612;2024-03-06T01:13:51;12.37;;;8.27;;
21901;SDS011;11115;46.038;14.612;2024-03-06T01:16:26;10.50;;;8.90;;
21901;SDS011;11115;46.038;14.612;2024-03-06T01:18:58;14.90;;;8.17;;
21901;SDS011;11115;46.038;14.612;2024-03-06T01:21:31;11.10;;;7.73;;
21901;SDS011;11115;46.038;14.612;2024-03-06T01:24:01;11.43;;;7.03;;
21901;SDS011;11115;46.038;14.612;2024-03-06T01:26:41;14.83;;;6.70;;
21901;SDS011;11115;46.038;14.612;2024-03-06T01:29:12;14.27;;;7.07;;
21901;SDS011;11115;46.038;14.612;2024-03-06T01:31:59;10.60;;;5.97;;
21901;SDS011;11115;46.038;14.612;2024-03-06T01:34:33;8.57;;;5.63;;
21901;SDS011;11115;46.038;14.612;2024-03-06T01:37:08;10.13;;;6.63;;
21901;SDS011;11115;46.038;14.612;2024-03-06T01:39:47;9.67;;;5.97;;
21901;SDS011;11115;46.038;14.612;2024-03-06T01:42:26;8.93;;;5.97;;
21901;SDS011;11115;46.038;14.612;2024-03-06T01:44:59;11.13;;;6.27;;
21901;SDS011;11115;46.038;14.612;2024-03-06T01:47:34;8.40;;;7.00;;
21901;SDS011;11115;46.038;14.612;2024-03-06T01:50:06;18.77;;;7.20;;
21901;SDS011;11115;46.038;14.612;2024-03-06T01:52:47;14.98;;;8.13;;
21901;SDS011;11115;46.038;14.612;2024-03-06T01:55:26;11.27;;;6.30;;
21901;SDS011;11115;46.038;14.612;2024-03-06T01:58:05;12.20;;;7.57;;
21901;SDS011;11115;46.038;14.612;2024-03-06T02:00:34;10.60;;;6.43;;
21901;SDS011;11115;46.038;14.612;2024-03-06T02:03:18;7.87;;;6.47;;
21901;SDS011;11115;46.038;14.612;2024-03-06T02:06:02;11.97;;;6.17;;
21901;SDS011;11115;46.038;14.612;2024-03-06T02:08:39;9.33;;;6.07;;
21901;SDS011;11115;46.038;14.612;2024-03-06T02:11:11;12.75;;;7.20;;
21901;SDS011;11115;46.038;14.612;2024-03-06T02:13:50;14.03;;;6.67;;
21901;SDS011;11115;46.038;14.612;2024-03-06T02:16:22;13.30;;;6.23;;
21901;SDS011;11115;46.038;14.612;2024-03-06T02:18:58;9.20;;;7.43;;
21901;SDS011;11115;46.038;14.612;2024-03-06T02:21:38;18.00;;;7.13;;
21901;SDS011;11115;46.038;14.612;2024-03-06T02:24:15;16.37;;;7.63;;
21901;SDS011;11115;46.038;14.612;2024-03-06T02:26:46;14.80;;;7.60;;
21901;SDS011;11115;46.038;14.612;2024-03-06T02:29:18;15.43;;;8.38;;
21901;SDS011;11115;46.038;14.612;2024-03-06T02:31:58;13.90;;;8.40;;
21901;SDS011;11115;46.038;14.612;2024-03-06T02:34:39;11.13;;;7.57;;
21901;SDS011;11115;46.038;14.612;2024-03-06T02:37:08;13.47;;;8.23;;
21901;SDS011;11115;46.038;14.612;2024-03-06T02:39:44;13.30;;;7.63;;
21901;SDS011;11115;46.038;14.612;2024-03-06T02:42:20;13.10;;;7.93;;
21901;SDS011;11115;46.038;14.612;2024-03-06T02:44:58;16.53;;;7.70;;
21901;SDS011;11115;46.038;14.612;2024-03-06T02:47:37;12.33;;;7.10;;
21901;SDS011;11115;46.038;14.612;2024-03-06T02:50:10;7.33;;;6.30;;
21901;SDS011;11115;46.038;14.612;2024-03-06T02:52:41;14.10;;;8.17;;
21901;SDS011;11115;46.038;14.612;2024-03-06T02:55:12;14.97;;;7.37;;
21901;SDS011;11115;46.038;14.612;2024-03-06T02:57:45;13.97;;;8.47;;
21901;SDS011;11115;46.038;14.612;2024-03-06T03:00:18;10.93;;;6.87;;
21901;SDS011;11115;46.038;14.612;2024-03-06T03:02:52;14.73;;;7.57;;
21901;SDS011;11115;46.038;14.612;2024-03-06T03:05:25;15.20;;;8.20;;
21901;SDS011;11115;46.038;14.612;2024-03-06T03:08:04;13.23;;;6.67;;
21901;SDS011;11115;46.038;14.612;2024-03-06T03:10:42;10.27;;;6.53;;
21901;SDS011;11115;46.038;14.612;2024-03-06T03:13:14;13.27;;;7.50;;
21901;SDS011;11115;46.038;14.612;2024-03-06T03:15:46;12.97;;;7.23;;
21901;SDS011;11115;46.038;14.612;2024-03-06T03:18:23;16.57;;;8.03;;
21901;SDS011;11115;46.038;14.612;2024-03-06T03:21:08;9.87;;;6.70;;
21901;SDS011;11115;46.038;14.612;2024-03-06T03:23:40;13.23;;;6.63;;
21901;SDS011;11115;46.038;14.612;2024-03-06T03:26:17;12.47;;;6.50;;
21901;SDS011;11115;46.038;14.612;2024-03-06T03:28:56;10.57;;;6.10;;
21901;SDS011;11115;46.038;14.612;2024-03-06T03:31:36;13.87;;;5.57;;
21901;SDS011;11115;46.038;14.612;2024-03-06T03:34:11;13.37;;;6.60;;
21901;SDS011;11115;46.038;14.612;2024-03-06T03:36:53;12.67;;;6.57;;
21901;SDS011;11115;46.038;14.612;2024-03-06T03:39:21;12.70;;;7.93;;
21901;SDS011;11115;46.038;14.612;2024-03-06T03:41:57;15.20;;;7.63;;
21901;SDS011;11115;46.038;14.612;2024-03-06T03:44:35;11.57;;;6.57;;
21901;SDS011;11115;46.038;14.612;2024-03-06T03:47:09;8.57;;;6.33;;
21901;SDS011;11115;46.038;14.612;2024-03-06T03:49:47;13.57;;;6.90;;
21901;SDS011;11115;46.038;14.612;2024-03-06T03:52:38;15.03;;;6.77;;
21901;SDS011;11115;46.038;14.612;2024-03-06T03:55:12;12.17;;;7.63;;
21901;SDS011;11115;46.038;14.612;2024-03-06T03:57:50;11.20;;;7.73;;
21901;SDS011;11115;46.038;14.612;2024-03-06T04:00:25;10.97;;;7.47;;
21901;SDS011;11115;46.038;14.612;2024-03-06T04:03:00;14.10;;;7.50;;
21901;SDS011;11115;46.038;14.612;2024-03-06T04:05:38;12.97;;;7.27;;
21901;SDS011;11115;46.038;14.612;2024-03-06T04:08:12;15.13;;;7.27;;
21901;SDS011;11115;46.038;14.612;2024-03-06T04:10:52;12.43;;;6.87;;
21901;SDS011;11115;46.038;14.612;2024-03-06T04:13:34;14.47;;;6.60;;
21901;SDS011;11115;46.038;14.612;2024-03-06T04:16:16;10.43;;;7.50;;
21901;SDS011;11115;46.038;14.612;2024-03-06T04:18:52;14.00;;;7.40;;
21901;SDS011;11115;46.038;14.612;2024-03-06T04:21:26;10.43;;;7.57;;
21901;SDS011;11115;46.038;14.612;2024-03-06T04:24:04;11.00;;;7.00;;
21901;SDS011;11115;46.038;14.612;2024-03-06T04:26:33;8.77;;;6.93;;
21901;SDS011;11115;46.038;14.612;2024-03-06T04:29:10;10.87;;;7.67;;
21901;SDS011;11115;46.038;14.612;2024-03-06T04:31:43;15.33;;;7.20;;
21901;SDS011;11115;46.038;14.612;2024-03-06T04:34:28;11.23;;;7.90;;
21901;SDS011;11115;46.038;14.612;2024-03-06T04:37:00;14.63;;;7.67;;
21901;SDS011;11115;46.038;14.612;2024-03-06T04:39:40;14.47;;;6.97;;
21901;SDS011;11115;46.038;14.612;2024-03-06T04:42:18;17.20;;;7.67;;
21901;SDS011;11115;46.038;14.612;2024-03-06T04:47:20;18.03;;;6.80;;
21901;SDS011;11115;46.038;14.612;2024-03-06T04:50:09;11.33;;;7.23;;
21901;SDS011;11115;46.038;14.612;2024-03-06T04:52:59;16.77;;;7.13;;
21901;SDS011;11115;46.038;14.612;2024-03-06T04:55:39;12.57;;;7.43;;
21901;SDS011;11115;46.038;14.612;2024-03-06T04:58:14;13.10;;;6.43;;
21901;SDS011;11115;46.038;14.612;2024-03-06T05:00:55;14.73;;;9.57;;
21901;SDS011;11115;46.038;14.612;2024-03-06T05:06:18;16.03;;;8.33;;
21901;SDS011;11115;46.038;14.612;2024-03-06T05:09:08;12.10;;;6.75;;
21901;SDS011;11115;46.038;14.612;2024-03-06T05:12:00;20.77;;;8.13;;
21901;SDS011;11115;46.038;14.612;2024-03-06T05:14:54;17.60;;;9.43;;
21901;SDS011;11115;46.038;14.612;2024-03-06T05:17:43;17.80;;;8.83;;
21901;SDS011;11115;46.038;14.612;2024-03-06T05:20:34;13.37;;;8.20;;
21901;SDS011;11115;46.038;14.612;2024-03-06T05:23:22;16.07;;;8.23;;
21901;SDS011;11115;46.038;14.612;2024-03-06T05:26:10;15.83;;;8.53;;
21901;SDS011;11115;46.038;14.612;2024-03-06T05:28:56;17.30;;;9.70;;
21901;SDS011;11115;46.038;14.612;2024-03-06T05:31:47;15.70;;;8.77;;
21901;SDS011;11115;46.038;14.612;2024-03-06T05:34:34;16.20;;;9.10;;
21901;SDS011;11115;46.038;14.612;2024-03-06T05:40:14;13.40;;;9.03;;
21901;SDS011;11115;46.038;14.612;2024-03-06T05:43:04;24.17;;;10.00;;
21901;SDS011;11115;46.038;14.612;2024-03-06T05:45:51;22.37;;;9.27;;
21901;SDS011;11115;46.038;14.612;2024-03-06T05:48:41;11.97;;;8.73;;
21901;SDS011;11115;46.038;14.612;2024-03-06T05:51:32;20.93;;;10.40;;
21901;SDS011;11115;46.038;14.612;2024-03-06T05:54:27;19.87;;;11.07;;
21901;SDS011;11115;46.038;14.612;2024-03-06T05:57:17;19.10;;;10.23;;
21901;SDS011;11115;46.038;14.612;2024-03-06T06:00:06;16.60;;;10.07;;
21901;SDS011;11115;46.038;14.612;2024-03-06T06:02:47;18.00;;;10.68;;
21901;SDS011;11115;46.038;14.612;2024-03-06T06:05:20;15.10;;;10.82;;
21901;SDS011;11115;46.038;14.612;2024-03-06T06:08:09;17.80;;;9.30;;
21901;SDS011;11115;46.038;14.612;2024-03-06T06:10:42;15.40;;;9.90;;
21901;SDS011;11115;46.038;14.612;2024-03-06T06:13:20;16.40;;;11.77;;
21901;SDS011;11115;46.038;14.612;2024-03-06T06:15:50;18.73;;;12.13;;
21901;SDS011;11115;46.038;14.612;2024-03-06T06:18:26;19.63;;;12.00;;
21901;SDS011;11115;46.038;14.612;2024-03-06T06:21:04;22.23;;;12.97;;
21901;SDS011;11115;46.038;14.612;2024-03-06T06:23:39;20.30;;;12.87;;
21901;SDS011;11115;46.038;14.612;2024-03-06T06:26:07;19.37;;;12.03;;
21901;SDS011;11115;46.038;14.612;2024-03-06T06:28:43;21.90;;;13.57;;
21901;SDS011;11115;46.038;14.612;2024-03-06T06:31:16;22.43;;;12.67;;
21901;SDS011;11115;46.038;14.612;2024-03-06T06:33:54;17.67;;;12.67;;
21901;SDS011;11115;46.038;14.612;2024-03-06T06:36:44;23.23;;;12.70;;
21901;SDS011;11115;46.038;14.612;2024-03-06T06:39:21;17.13;;;11.00;;
21901;SDS011;11115;46.038;14.612;2024-03-06T06:41:53;20.20;;;12.47;;
21901;SDS011;11115;46.038;14.612;2024-03-06T06:44:25;22.67;;;13.60;;
21901;SDS011;11115;46.038;14.612;2024-03-06T06:46:56;19.80;;;11.97;;
21901;SDS011;11115;46.038;14.612;2024-03-06T06:49:31;22.10;;;12.23;;
21901;SDS011;11115;46.038;14.612;2024-03-06T06:52:09;19.40;;;12.20;;
21901;SDS011;11115;46.038;14.612;2024-03-06T06:54:41;23.10;;;12.82;;
21901;SDS011;11115;46.038;14.612;2024-03-06T06:57:10;17.30;;;13.07;;
21901;SDS011;11115;46.038;14.612;2024-03-06T06:59:47;21.70;;;14.90;;
21901;SDS011;11115;46.038;14.612;2024-03-06T07:02:21;31.87;;;16.27;;
21901;SDS011;11115;46.038;14.612;2024-03-06T07:04:51;23.50;;;16.37;;
21901;SDS011;11115;46.038;14.612;2024-03-06T07:10:02;24.03;;;15.87;;
21901;SDS011;11115;46.038;14.612;2024-03-06T07:12:42;19.37;;;13.73;;
21901;SDS011;11115;46.038;14.612;2024-03-06T07:15:16;17.93;;;13.60;;
21901;SDS011;11115;46.038;14.612;2024-03-06T07:17:50;27.37;;;15.33;;
21901;SDS011;11115;46.038;14.612;2024-03-06T07:20:24;24.20;;;17.20;;
21901;SDS011;11115;46.038;14.612;2024-03-06T07:23:03;20.60;;;15.23;;
21901;SDS011;11115;46.038;14.612;2024-03-06T07:25:46;21.20;;;15.53;;
21901;SDS011;11115;46.038;14.612;2024-03-06T07:28:19;20.10;;;14.90;;
21901;SDS011;11115;46.038;14.612;2024-03-06T07:30:52;23.73;;;16.90;;
21901;SDS011;11115;46.038;14.612;2024-03-06T07:33:28;29.93;;;17.23;;
21901;SDS011;11115;46.038;14.612;2024-03-06T07:35:59;27.03;;;16.77;;
21901;SDS011;11115;46.038;14.612;2024-03-06T07:38:34;21.23;;;15.60;;
21901;SDS011;11115;46.038;14.612;2024-03-06T07:41:10;22.90;;;15.83;;
21901;SDS011;11115;46.038;14.612;2024-03-06T07:43:49;20.83;;;14.30;;
21901;SDS011;11115;46.038;14.612;2024-03-06T07:46:22;32.63;;;20.50;;
21901;SDS011;11115;46.038;14.612;2024-03-06T07:48:53;40.70;;;23.27;;
21901;SDS011;11115;46.038;14.612;2024-03-06T07:51:22;25.93;;;17.13;;
21901;SDS011;11115;46.038;14.612;2024-03-06T07:53:59;27.23;;;15.77;;
21901;SDS011;11115;46.038;14.612;2024-03-06T07:56:38;22.03;;;14.43;;
21901;SDS011;11115;46.038;14.612;2024-03-06T07:59:12;18.43;;;13.10;;
21901;SDS011;11115;46.038;14.612;2024-03-06T08:01:48;23.67;;;16.47;;
21901;SDS011;11115;46.038;14.612;2024-03-06T08:04:26;25.87;;;15.63;;
21901;SDS011;11115;46.038;14.612;2024-03-06T08:06:57;22.07;;;14.77;;
21901;SDS011;11115;46.038;14.612;2024-03-06T08:09:30;31.60;;;18.07;;
21901;SDS011;11115;46.038;14.612;2024-03-06T08:12:03;25.47;;;18.37;;
21901;SDS011;11115;46.038;14.612;2024-03-06T08:14:46;26.47;;;18.10;;
21901;SDS011;11115;46.038;14.612;2024-03-06T08:17:31;30.43;;;19.67;;
21901;SDS011;11115;46.038;14.612;2024-03-06T08:20:06;28.03;;;18.97;;
21901;SDS011;11115;46.038;14.612;2024-03-06T08:22:44;25.13;;;16.93;;
21901;SDS011;11115;46.038;14.612;2024-03-06T08:25:14;27.60;;;18.43;;
21901;SDS011;11115;46.038;14.612;2024-03-06T08:27:51;30.13;;;19.23;;
21901;SDS011;11115;46.038;14.612;2024-03-06T08:30:28;31.63;;;19.33;;
21901;SDS011;11115;46.038;14.612;2024-03-06T08:33:06;30.90;;;20.50;;
21901;SDS011;11115;46.038;14.612;2024-03-06T08:35:44;25.00;;;17.90;;
21901;SDS011;11115;46.038;14.612;2024-03-06T08:38:14;26.90;;;14.97;;
21901;SDS011;11115;46.038;14.612;2024-03-06T08:40:52;23.90;;;17.33;;
21901;SDS011;11115;46.038;14.612;2024-03-06T08:43:25;24.23;;;16.70;;
21901;SDS011;11115;46.038;14.612;2024-03-06T08:45:55;27.00;;;15.93;;
21901;SDS011;11115;46.038;14.612;2024-03-06T08:48:33;30.80;;;18.07;;
21901;SDS011;11115;46.038;14.612;2024-03-06T08:51:09;33.93;;;20.73;;
21901;SDS011;11115;46.038;14.612;2024-03-06T08:53:45;36.33;;;23.87;;
21901;SDS011;11115;46.038;14.612;2024-03-06T08:56:19;30.90;;;21.93;;
21901;SDS011;11115;46.038;14.612;2024-03-06T08:59:01;30.10;;;19.63;;
21901;SDS011;11115;46.038;14.612;2024-03-06T09:01:37;26.40;;;18.60;;
21901;SDS011;11115;46.038;14.612;2024-03-06T09:04:14;24.93;;;17.57;;
21901;SDS011;11115;46.038;14.612;2024-03-06T09:06:52;25.97;;;16.87;;
21901;SDS011;11115;46.038;14.612;2024-03-06T09:09:28;24.13;;;16.23;;
21901;SDS011;11115;46.038;14.612;2024-03-06T09:12:08;25.20;;;17.10;;
21901;SDS011;11115;46.038;14.612;2024-03-06T09:14:55;29.30;;;15.97;;
21901;SDS011;11115;46.038;14.612;2024-03-06T09:17:30;27.77;;;17.73;;
21901;SDS011;11115;46.038;14.612;2024-03-06T09:20:02;24.17;;;15.43;;
21901;SDS011;11115;46.038;14.612;2024-03-06T09:22:41;27.37;;;17.90;;
21901;SDS011;11115;46.038;14.612;2024-03-06T09:25:20;26.47;;;19.37;;
21901;SDS011;11115;46.038;14.612;2024-03-06T09:27:55;25.33;;;17.77;;
21901;SDS011;11115;46.038;14.612;2024-03-06T09:30:32;28.23;;;18.90;;
21901;SDS011;11115;46.038;14.612;2024-03-06T09:33:20;26.60;;;16.83;;
21901;SDS011;11115;46.038;14.612;2024-03-06T09:35:56;30.53;;;17.30;;
21901;SDS011;11115;46.038;14.612;2024-03-06T09:38:30;23.67;;;16.43;;
21901;SDS011;11115;46.038;14.612;2024-03-06T09:41:04;24.93;;;16.80;;
21901;SDS011;11115;46.038;14.612;2024-03-06T09:43:39;27.77;;;18.47;;
21901;SDS011;11115;46.038;14.612;2024-03-06T09:46:14;26.27;;;16.53;;
21901;SDS011;11115;46.038;14.612;2024-03-06T09:48:50;25.93;;;17.23;;
21901;SDS011;11115;46.038;14.612;2024-03-06T09:51:24;27.43;;;16.97;;
21901;SDS011;11115;46.038;14.612;2024-03-06T09:54:04;24.97;;;17.37;;
21901;SDS011;11115;46.038;14.612;2024-03-06T09:56:37;28.47;;;17.10;;
21901;SDS011;11115;46.038;14.612;2024-03-06T09:59:07;31.95;;;17.90;;
21901;SDS011;11115;46.038;14.612;2024-03-06T10:01:50;24.60;;;16.93;;
21901;SDS011;11115;46.038;14.612;2024-03-06T10:04:43;28.23;;;16.37;;
21901;SDS011;11115;46.038;14.612;2024-03-06T10:07:30;26.97;;;18.00;;
21901;SDS011;11115;46.038;14.612;2024-03-06T10:10:07;26.40;;;16.53;;
21901;SDS011;11115;46.038;14.612;2024-03-06T10:12:42;24.10;;;14.97;;
21901;SDS011;11115;46.038;14.612;2024-03-06T10:15:24;24.10;;;16.00;;
21901;SDS011;11115;46.038;14.612;2024-03-06T10:18:14;25.77;;;16.60;;
21901;SDS011;11115;46.038;14.612;2024-03-06T10:23:22;23.63;;;15.82;;
21901;SDS011;11115;46.038;14.612;2024-03-06T10:25:59;26.50;;;17.23;;
21901;SDS011;11115;46.038;14.612;2024-03-06T10:28:37;22.77;;;15.93;;
21901;SDS011;11115;46.038;14.612;2024-03-06T10:31:28;22.33;;;15.97;;
21901;SDS011;11115;46.038;14.612;2024-03-06T10:34:06;25.37;;;16.70;;
21901;SDS011;11115;46.038;14.612;2024-03-06T10:36:41;33.57;;;19.30;;
21901;SDS011;11115;46.038;14.612;2024-03-06T10:39:19;27.93;;;18.80;;
21901;SDS011;11115;46.038;14.612;2024-03-06T10:41:55;30.07;;;18.90;;
21901;SDS011;11115;46.038;14.612;2024-03-06T10:44:30;28.00;;;19.20;;
21901;SDS011;11115;46.038;14.612;2024-03-06T10:47:08;29.80;;;18.80;;
21901;SDS011;11115;46.038;14.612;2024-03-06T10:49:59;28.92;;;18.50;;
21901;SDS011;11115;46.038;14.612;2024-03-06T10:52:38;29.40;;;20.03;;
21901;SDS011;11115;46.038;14.612;2024-03-06T10:55:18;31.00;;;20.63;;
21901;SDS011;11115;46.038;14.612;2024-03-06T10:57:52;31.60;;;20.13;;
21901;SDS011;11115;46.038;14.612;2024-03-06T11:00:31;26.73;;;19.40;;
21901;SDS011;11115;46.038;14.612;2024-03-06T11:03:11;27.63;;;19.63;;
21901;SDS011;11115;46.038;14.612;2024-03-06T11:05:45;28.57;;;20.33;;
21901;SDS011;11115;46.038;14.612;2024-03-06T11:08:18;26.63;;;19.13;;
21901;SDS011;11115;46.038;14.612;2024-03-06T11:11:18;28.37;;;20.57;;
21901;SDS011;11115;46.038;14.612;2024-03-06T11:13:50;31.92;;;19.63;;
21901;SDS011;11115;46.038;14.612;2024-03-06T11:16:33;31.37;;;19.60;;
21901;SDS011;11115;46.038;14.612;2024-03-06T11:19:30;29.17;;;18.63;;
21901;SDS011;11115;46.038;14.612;2024-03-06T11:22:03;31.67;;;20.60;;
21901;SDS011;11115;46.038;14.612;2024-03-06T11:24:36;30.35;;;21.83;;
21901;SDS011;11115;46.038;14.612;2024-03-06T11:27:14;28.23;;;20.40;;
21901;SDS011;11115;46.038;14.612;2024-03-06T11:30:13;26.10;;;19.17;;
21901;SDS011;11115;46.038;14.612;2024-03-06T11:33:00;24.70;;;16.83;;
21901;SDS011;11115;46.038;14.612;2024-03-06T11:35:35;26.13;;;17.70;;
21901;SDS011;11115;46.038;14.612;2024-03-06T11:38:11;22.17;;;15.97;;
21901;SDS011;11115;46.038;14.612;2024-03-06T11:40:44;26.17;;;17.60;;
21901;SDS011;11115;46.038;14.612;2024-03-06T11:43:31;28.50;;;18.73;;
21901;SDS011;11115;46.038;14.612;2024-03-06T11:46:10;24.07;;;17.70;;
21901;SDS011;11115;46.038;14.612;2024-03-06T11:48:55;29.03;;;18.23;;
21901;SDS011;11115;46.038;14.612;2024-03-06T11:51:29;26.70;;;17.60;;
21901;SDS011;11115;46.038;14.612;2024-03-06T11:54:09;27.80;;;17.80;;
21901;SDS011;11115;46.038;14.612;2024-03-06T11:56:44;29.00;;;19.77;;
21901;SDS011;11115;46.038;14.612;2024-03-06T12:02:26;28.43;;;18.97;;
21901;SDS011;11115;46.038;14.612;2024-03-06T12:05:03;26.33;;;17.10;;
21901;SDS011;11115;46.038;14.612;2024-03-06T12:07:49;25.20;;;18.07;;
21901;SDS011;11115;46.038;14.612;2024-03-06T12:10:26;28.80;;;18.50;;
21901;SDS011;11115;46.038;14.612;2024-03-06T12:13:02;24.27;;;17.23;;
21901;SDS011;11115;46.038;14.612;2024-03-06T12:15:35;28.37;;;21.10;;
21901;SDS011;11115;46.038;14.612;2024-03-06T12:18:13;26.00;;;17.60;;
21901;SDS011;11115;46.038;14.612;2024-03-06T12:20:53;32.37;;;21.30;;
21901;SDS011;11115;46.038;14.612;2024-03-06T12:23:25;26.17;;;17.47;;
21901;SDS011;11115;46.038;14.612;2024-03-06T12:26:08;29.93;;;18.90;;
21901;SDS011;11115;46.038;14.612;2024-03-06T12:28:41;25.10;;;18.43;;
21901;SDS011;11115;46.038;14.612;2024-03-06T12:31:15;31.80;;;19.27;;
21901;SDS011;11115;46.038;14.612;2024-03-06T12:33:56;28.80;;;19.77;;
21901;SDS011;11115;46.038;14.612;2024-03-06T12:36:36;26.00;;;17.70;;
21901;SDS011;11115;46.038;14.612;2024-03-06T12:39:18;23.63;;;17.33;;
21901;SDS011;11115;46.038;14.612;2024-03-06T12:41:56;33.90;;;22.27;;
21901;SDS011;11115;46.038;14.612;2024-03-06T12:44:34;26.63;;;18.83;;
21901;SDS011;11115;46.038;14.612;2024-03-06T12:47:09;26.17;;;18.97;;
21901;SDS011;11115;46.038;14.612;2024-03-06T12:49:43;29.47;;;20.77;;
21901;SDS011;11115;46.038;14.612;2024-03-06T12:52:19;28.23;;;19.13;;
21901;SDS011;11115;46.038;14.612;2024-03-06T12:54:52;28.50;;;20.53;;
21901;SDS011;11115;46.038;14.612;2024-03-06T12:57:26;28.87;;;20.90;;
21901;SDS011;11115;46.038;14.612;2024-03-06T13:00:00;28.10;;;19.60;;
21901;SDS011;11115;46.038;14.612;2024-03-06T13:02:33;28.77;;;19.23;;
21901;SDS011;11115;46.038;14.612;2024-03-06T13:05:03;27.67;;;19.67;;
21901;SDS011;11115;46.038;14.612;2024-03-06T13:07:42;28.87;;;20.13;;
21901;SDS011;11115;46.038;14.612;2024-03-06T13:10:16;30.03;;;19.47;;
21901;SDS011;11115;46.038;14.612;2024-03-06T13:12:54;30.30;;;19.43;;
21901;SDS011;11115;46.038;14.612;2024-03-06T13:15:33;26.57;;;18.40;;
21901;SDS011;11115;46.038;14.612;2024-03-06T13:18:17;26.13;;;19.27;;
21901;SDS011;11115;46.038;14.612;2024-03-06T13:20:52;28.10;;;19.13;;
21901;SDS011;11115;46.038;14.612;2024-03-06T13:23:47;29.00;;;19.87;;
21901;SDS011;11115;46.038;14.612;2024-03-06T13:26:15;30.80;;;19.10;;
21901;SDS011;11115;46.038;14.612;2024-03-06T13:28:46;28.50;;;19.20;;
21901;SDS011;11115;46.038;14.612;2024-03-06T13:31:19;32.07;;;20.50;;
21901;SDS011;11115;46.038;14.612;2024-03-06T13:34:01;25.27;;;18.03;;
21901;SDS011;11115;46.038;14.612;2024-03-06T13:36:32;31.87;;;20.00;;
21901;SDS011;11115;46.038;14.612;2024-03-06T13:39:09;29.40;;;18.93;;
21901;SDS011;11115;46.038;14.612;2024-03-06T13:41:50;28.17;;;18.47;;
21901;SDS011;11115;46.038;14.612;2024-03-06T13:44:25;33.50;;;20.33;;
21901;SDS011;11115;46.038;14.612;2024-03-06T13:47:02;29.47;;;19.47;;
21901;SDS011;11115;46.038;14.612;2024-03-06T13:49:39;27.70;;;18.03;;
21901;SDS011;11115;46.038;14.612;2024-03-06T13:52:19;29.98;;;19.33;;
21901;SDS011;11115;46.038;14.612;2024-03-06T13:54:51;26.37;;;18.17;;
21901;SDS011;11115;46.038;14.612;2024-03-06T13:57:32;27.67;;;18.33;;
21901;SDS011;11115;46.038;14.612;2024-03-06T14:00:05;26.33;;;17.67;;
21901;SDS011;11115;46.038;14.612;2024-03-06T14:02:41;25.80;;;17.20;;
21901;SDS011;11115;46.038;14.612;2024-03-06T14:05:10;22.87;;;16.77;;
21901;SDS011;11115;46.038;14.612;2024-03-06T14:07:51;24.98;;;17.42;;
21901;SDS011;11115;46.038;14.612;2024-03-06T14:10:29;24.50;;;17.47;;
21901;SDS011;11115;46.038;14.612;2024-03-06T14:13:11;28.87;;;17.83;;
21901;SDS011;11115;46.038;14.612;2024-03-06T14:15:54;24.00;;;15.73;;
21901;SDS011;11115;46.038;14.612;2024-03-06T14:18:27;25.23;;;16.17;;
21901;SDS011;11115;46.038;14.612;2024-03-06T14:21:01;25.67;;;16.47;;
21901;SDS011;11115;46.038;14.612;2024-03-06T14:23:43;24.60;;;16.57;;
21901;SDS011;11115;46.038;14.612;2024-03-06T14:26:16;25.73;;;16.83;;
21901;SDS011;11115;46.038;14.612;2024-03-06T14:28:53;24.23;;;17.83;;
21901;SDS011;11115;46.038;14.612;2024-03-06T14:31:29;25.93;;;16.30;;
21901;SDS011;11115;46.038;14.612;2024-03-06T14:34:06;22.43;;;15.77;;
21901;SDS011;11115;46.038;14.612;2024-03-06T14:36:43;22.87;;;15.40;;
21901;SDS011;11115;46.038;14.612;2024-03-06T14:39:18;23.13;;;16.13;;
21901;SDS011;11115;46.038;14.612;2024-03-06T14:41:58;26.98;;;17.25;;
21901;SDS011;11115;46.038;14.612;2024-03-06T14:44:34;20.10;;;14.40;;
21901;SDS011;11115;46.038;14.612;2024-03-06T14:47:12;24.80;;;17.27;;
21901;SDS011;11115;46.038;14.612;2024-03-06T14:49:47;25.17;;;17.80;;
21901;SDS011;11115;46.038;14.612;2024-03-06T14:52:21;25.40;;;17.50;;
21901;SDS011;11115;46.038;14.612;2024-03-06T14:54:56;28.20;;;17.40;;
21901;SDS011;11115;46.038;14.612;2024-03-06T14:57:29;28.50;;;20.17;;
21901;SDS011;11115;46.038;14.612;2024-03-06T15:00:06;31.47;;;20.80;;
21901;SDS011;11115;46.038;14.612;2024-03-06T15:03:03;25.87;;;18.20;;
21901;SDS011;11115;46.038;14.612;2024-03-06T15:05:45;22.87;;;16.83;;
21901;SDS011;11115;46.038;14.612;2024-03-06T15:08:24;28.37;;;21.00;;
21901;SDS011;11115;46.038;14.612;2024-03-06T15:10:53;24.83;;;17.97;;
21901;SDS011;11115;46.038;14.612;2024-03-06T15:13:28;22.17;;;15.50;;
21901;SDS011;11115;46.038;14.612;2024-03-06T15:16:06;17.63;;;12.97;;
21901;SDS011;11115;46.038;14.612;2024-03-06T15:18:45;20.83;;;14.17;;
21901;SDS011;11115;46.038;14.612;2024-03-06T15:21:23;22.83;;;15.60;;
21901;SDS011;11115;46.038;14.612;2024-03-06T15:23:56;16.37;;;12.33;;
21901;SDS011;11115;46.038;14.612;2024-03-06T15:26:34;20.17;;;13.30;;
21901;SDS011;11115;46.038;14.612;2024-03-06T15:29:09;20.43;;;11.93;;